首页
METAR-TAF:

METAR-TAF

机场 :

Jackson County Airport (Reynolds Field)

杰克逊, 密歇根州, 美国

纬度: 42-15-35N, 经度: 084-27-34W, 海拔: 305米

当前天气观测

该预报发布于48分钟前的04:56 UTC
风速5节,风向
温度 16°C
湿度 100%
气压 1014 hPa
能見度: 3.2公里
阴天层高于300英尺
轻雾

METAR: KJXN 170456Z AUTO 08005KT 2SM BR OVC003 16/16 A2994 RMK AO2 SLP138 T01610156 401830133 $

时间: 01:44 (05:44 UTC)

预报

该预报发布于6小时和11分钟前的23:33 UTC
预报有效从17日的 00点(UTC)到 17日的 24点(UTC)
风速4节,风向东转东北
能見度: 2.4公里
阴天层高于300英尺
轻雾
从 17日的 0300点(UTC)
风速4节,风向
能見度: 1.6公里
阴天层高于400英尺
轻雾
从 17日的 0900点(UTC)
风速4节,风向
能見度: 1.6公里
阴天层高于600英尺
轻雾
从 17日的 1500点(UTC)
风速4节,风向东转东北
能見度: 10公里
阴天层高于2500英尺
从 17日的 2100点(UTC)
风速4节,风向
能見度: 10公里
阴天层高于5000英尺

TAF: KJXN 162333Z 1700/1724 06004KT 1 1/2SM BR OVC003 FM170300 08004KT 2SM BR OVC004 FM170900 08004KT 4SM BR OVC006 FM171500 07004KT P6SM OVC025 FM172100 08004KT P6SM OVC050

超过4000个机场的气象观测和天气预报(METAR&TAF报告)。

可查询的气象台以黄色和红色小点在地图上表示。

将鼠标移到小点上方,可查看气象台名称。

然后点击查看天气观测和预报。

如需切换地图:点击带黑十字的绿色按钮放大地图;点击带横线的绿色按钮缩小地图;或者点击绿色箭头查看邻近地区的地图。


METAR-TAF: